sensor_id;sensor_type;location;lat;lon;timestamp;pressure;altitude;pressure_sealevel;temperature;humidity
69257;BME280;56376;53.356;-1.748;2024-03-23T00:54:28;99036.19;;;5.10;100.00
69257;BME280;56376;53.356;-1.748;2024-03-23T00:56:54;99030.06;;;5.14;100.00
69257;BME280;56376;53.356;-1.748;2024-03-23T00:59:19;99037.06;;;5.09;100.00
69257;BME280;56376;53.356;-1.748;2024-03-23T01:01:47;99027.72;;;5.02;100.00
69257;BME280;56376;53.356;-1.748;2024-03-23T01:04:33;99030.25;;;5.05;100.00
69257;BME280;56376;53.356;-1.748;2024-03-23T01:06:59;99026.84;;;5.03;100.00
69257;BME280;56376;53.356;-1.748;2024-03-23T01:09:24;99032.81;;;5.07;100.00
69257;BME280;56376;53.356;-1.748;2024-03-23T01:11:50;99036.31;;;5.04;100.00
69257;BME280;56376;53.356;-1.748;2024-03-23T01:14:17;99022.41;;;5.08;100.00
69257;BME280;56376;53.356;-1.748;2024-03-23T01:16:43;99033.59;;;5.09;100.00
69257;BME280;56376;53.356;-1.748;2024-03-23T01:19:08;99031.16;;;5.04;100.00
69257;BME280;56376;53.356;-1.748;2024-03-23T01:21:34;99027.66;;;5.05;100.00
69257;BME280;56376;53.356;-1.748;2024-03-23T01:23:59;99024.22;;;5.05;100.00
69257;BME280;56376;53.356;-1.748;2024-03-23T01:26:24;99014.75;;;5.04;100.00
69257;BME280;56376;53.356;-1.748;2024-03-23T01:28:50;99033.56;;;5.12;100.00
69257;BME280;56376;53.356;-1.748;2024-03-23T01:31:15;99017.31;;;5.05;100.00
69257;BME280;56376;53.356;-1.748;2024-03-23T01:33:42;99008.72;;;5.03;100.00
69257;BME280;56376;53.356;-1.748;2024-03-23T01:36:08;99006.00;;;5.09;100.00
69257;BME280;56376;53.356;-1.748;2024-03-23T01:38:33;98992.25;;;5.06;100.00
69257;BME280;56376;53.356;-1.748;2024-03-23T01:40:59;98994.25;;;4.94;100.00
69257;BME280;56376;53.356;-1.748;2024-03-23T01:43:25;98996.00;;;4.94;100.00
69257;BME280;56376;53.356;-1.748;2024-03-23T01:45:51;99007.97;;;4.98;100.00
69257;BME280;56376;53.356;-1.748;2024-03-23T01:48:19;99015.81;;;4.95;100.00
69257;BME280;56376;53.356;-1.748;2024-03-23T01:50:45;99005.44;;;4.95;100.00
69257;BME280;56376;53.356;-1.748;2024-03-23T01:53:11;98998.69;;;4.88;100.00
69257;BME280;56376;53.356;-1.748;2024-03-23T01:55:37;98998.63;;;4.91;100.00
69257;BME280;56376;53.356;-1.748;2024-03-23T01:58:04;98982.31;;;4.87;100.00
69257;BME280;56376;53.356;-1.748;2024-03-23T02:00:29;98984.81;;;4.92;100.00
69257;BME280;56376;53.356;-1.748;2024-03-23T02:02:55;98977.06;;;4.92;100.00
69257;BME280;56376;53.356;-1.748;2024-03-23T02:05:22;98972.72;;;4.92;100.00
69257;BME280;56376;53.356;-1.748;2024-03-23T02:07:47;98965.88;;;4.90;100.00
69257;BME280;56376;53.356;-1.748;2024-03-23T02:10:13;98963.31;;;4.88;100.00
69257;BME280;56376;53.356;-1.748;2024-03-23T02:12:39;98962.41;;;4.91;100.00
69257;BME280;56376;53.356;-1.748;2024-03-23T02:15:05;98962.28;;;4.95;100.00
69257;BME280;56376;53.356;-1.748;2024-03-23T02:17:32;98955.44;;;4.94;100.00
69257;BME280;56376;53.356;-1.748;2024-03-23T02:19:58;98937.13;;;5.02;100.00
69257;BME280;56376;53.356;-1.748;2024-03-23T02:22:24;98948.25;;;5.06;100.00
69257;BME280;56376;53.356;-1.748;2024-03-23T02:24:49;98939.72;;;5.02;100.00
69257;BME280;56376;53.356;-1.748;2024-03-23T02:27:15;98932.97;;;4.95;100.00
69257;BME280;56376;53.356;-1.748;2024-03-23T02:29:40;98927.81;;;4.95;100.00
69257;BME280;56376;53.356;-1.748;2024-03-23T02:32:06;98929.63;;;4.91;100.00
69257;BME280;56376;53.356;-1.748;2024-03-23T02:34:35;98929.66;;;4.90;100.00
69257;BME280;56376;53.356;-1.748;2024-03-23T02:37:01;98941.69;;;4.91;100.00
69257;BME280;56376;53.356;-1.748;2024-03-23T02:39:27;98942.50;;;4.93;100.00
69257;BME280;56376;53.356;-1.748;2024-03-23T02:41:52;98936.47;;;4.94;100.00
69257;BME280;56376;53.356;-1.748;2024-03-23T02:44:18;98940.00;;;4.90;100.00
69257;BME280;56376;53.356;-1.748;2024-03-23T02:46:44;98916.00;;;4.83;100.00
69257;BME280;56376;53.356;-1.748;2024-03-23T02:49:09;98932.44;;;4.81;100.00
69257;BME280;56376;53.356;-1.748;2024-03-23T02:51:34;98929.06;;;4.77;100.00
69257;BME280;56376;53.356;-1.748;2024-03-23T02:54:00;98937.59;;;4.81;100.00
69257;BME280;56376;53.356;-1.748;2024-03-23T02:56:26;98929.09;;;4.75;100.00
69257;BME280;56376;53.356;-1.748;2024-03-23T02:58:51;98929.91;;;4.77;100.00
69257;BME280;56376;53.356;-1.748;2024-03-23T03:01:16;98930.81;;;4.76;100.00
69257;BME280;56376;53.356;-1.748;2024-03-23T03:03:43;98941.03;;;4.83;100.00
69257;BME280;56376;53.356;-1.748;2024-03-23T03:06:09;98923.06;;;4.75;100.00
69257;BME280;56376;53.356;-1.748;2024-03-23T03:08:35;98918.91;;;4.69;100.00
69257;BME280;56376;53.356;-1.748;2024-03-23T03:11:00;98922.25;;;4.73;100.00
69257;BME280;56376;53.356;-1.748;2024-03-23T03:13:47;98923.97;;;4.74;100.00
69257;BME280;56376;53.356;-1.748;2024-03-23T03:16:12;98921.47;;;4.69;100.00
69257;BME280;56376;53.356;-1.748;2024-03-23T03:18:38;98921.34;;;4.75;100.00
69257;BME280;56376;53.356;-1.748;2024-03-23T03:21:05;98920.56;;;4.72;100.00
69257;BME280;56376;53.356;-1.748;2024-03-23T03:23:37;98921.47;;;4.69;100.00
69257;BME280;56376;53.356;-1.748;2024-03-23T03:26:03;98903.56;;;4.62;100.00
69257;BME280;56376;53.356;-1.748;2024-03-23T03:28:28;98910.50;;;4.58;100.00
69257;BME280;56376;53.356;-1.748;2024-03-23T03:30:56;98910.47;;;4.61;100.00
69257;BME280;56376;53.356;-1.748;2024-03-23T03:33:22;98905.22;;;4.64;100.00
69257;BME280;56376;53.356;-1.748;2024-03-23T03:35:47;98906.91;;;4.65;100.00
69257;BME280;56376;53.356;-1.748;2024-03-23T03:38:13;98900.00;;;4.66;100.00
69257;BME280;56376;53.356;-1.748;2024-03-23T03:40:38;98892.19;;;4.69;100.00
69257;BME280;56376;53.356;-1.748;2024-03-23T03:43:04;98894.88;;;4.63;100.00
69257;BME280;56376;53.356;-1.748;2024-03-23T03:45:31;98888.88;;;4.62;100.00
69257;BME280;56376;53.356;-1.748;2024-03-23T03:47:57;98887.81;;;4.71;100.00
69257;BME280;56376;53.356;-1.748;2024-03-23T03:50:22;98881.78;;;4.70;100.00
69257;BME280;56376;53.356;-1.748;2024-03-23T03:52:48;98871.50;;;4.67;100.00
69257;BME280;56376;53.356;-1.748;2024-03-23T03:55:15;98858.56;;;4.67;100.00
69257;BME280;56376;53.356;-1.748;2024-03-23T03:57:41;98867.19;;;4.68;100.00
69257;BME280;56376;53.356;-1.748;2024-03-23T04:00:07;98859.41;;;4.68;100.00
69257;BME280;56376;53.356;-1.748;2024-03-23T04:02:37;98851.66;;;4.68;100.00
69257;BME280;56376;53.356;-1.748;2024-03-23T04:05:23;98856.75;;;4.71;100.00
69257;BME280;56376;53.356;-1.748;2024-03-23T04:07:48;98856.00;;;4.67;100.00
69257;BME280;56376;53.356;-1.748;2024-03-23T04:10:14;98861.16;;;4.67;100.00
69257;BME280;56376;53.356;-1.748;2024-03-23T04:12:40;98851.63;;;4.69;100.00
69257;BME280;56376;53.356;-1.748;2024-03-23T04:15:07;98861.97;;;4.69;100.00
69257;BME280;56376;53.356;-1.748;2024-03-23T04:17:33;98861.34;;;4.58;100.00
69257;BME280;56376;53.356;-1.748;2024-03-23T04:20:00;98854.50;;;4.57;100.00
69257;BME280;56376;53.356;-1.748;2024-03-23T04:22:26;98853.69;;;4.55;100.00
69257;BME280;56376;53.356;-1.748;2024-03-23T04:24:56;98843.47;;;4.49;100.00
69257;BME280;56376;53.356;-1.748;2024-03-23T04:27:25;98855.59;;;4.47;100.00
69257;BME280;56376;53.356;-1.748;2024-03-23T04:29:51;98864.91;;;4.54;100.00
69257;BME280;56376;53.356;-1.748;2024-03-23T04:32:16;98860.53;;;4.56;100.00
69257;BME280;56376;53.356;-1.748;2024-03-23T04:34:44;98858.94;;;4.52;100.00
69257;BME280;56376;53.356;-1.748;2024-03-23T04:37:10;98845.19;;;4.48;100.00
69257;BME280;56376;53.356;-1.748;2024-03-23T04:39:36;98838.41;;;4.44;100.00
69257;BME280;56376;53.356;-1.748;2024-03-23T04:42:02;98854.97;;;4.36;100.00
69257;BME280;56376;53.356;-1.748;2024-03-23T04:44:30;98854.97;;;4.36;100.00
69257;BME280;56376;53.356;-1.748;2024-03-23T04:46:59;98855.94;;;4.31;100.00
69257;BME280;56376;53.356;-1.748;2024-03-23T04:49:25;98854.59;;;4.14;100.00
69257;BME280;56376;53.356;-1.748;2024-03-23T04:51:51;98850.53;;;4.02;100.00
69257;BME280;56376;53.356;-1.748;2024-03-23T04:54:18;98845.50;;;3.96;100.00
69257;BME280;56376;53.356;-1.748;2024-03-23T04:56:44;98822.34;;;3.88;100.00
69257;BME280;56376;53.356;-1.748;2024-03-23T04:59:09;98816.25;;;3.94;100.00
69257;BME280;56376;53.356;-1.748;2024-03-23T05:01:35;98823.03;;;3.98;100.00
69257;BME280;56376;53.356;-1.748;2024-03-23T05:04:04;98799.03;;;3.93;100.00
69257;BME280;56376;53.356;-1.748;2024-03-23T05:06:29;98826.38;;;4.03;100.00
69257;BME280;56376;53.356;-1.748;2024-03-23T05:08:54;98820.34;;;4.02;100.00
69257;BME280;56376;53.356;-1.748;2024-03-23T05:11:20;98820.34;;;4.02;100.00
69257;BME280;56376;53.356;-1.748;2024-03-23T05:13:46;98839.34;;;4.00;100.00
69257;BME280;56376;53.356;-1.748;2024-03-23T05:16:12;98842.09;;;3.92;100.00
69257;BME280;56376;53.356;-1.748;2024-03-23T05:18:37;98824.94;;;3.89;100.00
69257;BME280;56376;53.356;-1.748;2024-03-23T05:21:03;98819.81;;;3.86;100.00
69257;BME280;56376;53.356;-1.748;2024-03-23T05:23:30;98812.94;;;3.85;100.00
69257;BME280;56376;53.356;-1.748;2024-03-23T05:25:56;98810.47;;;3.81;100.00
69257;BME280;56376;53.356;-1.748;2024-03-23T05:28:22;98806.25;;;3.75;100.00
69257;BME280;56376;53.356;-1.748;2024-03-23T05:30:54;98812.16;;;3.83;100.00
69257;BME280;56376;53.356;-1.748;2024-03-23T05:33:20;98801.66;;;3.91;100.00
69257;BME280;56376;53.356;-1.748;2024-03-23T05:35:46;98817.97;;;3.93;100.00
69257;BME280;56376;53.356;-1.748;2024-03-23T05:38:13;98817.25;;;3.86;100.00
69257;BME280;56376;53.356;-1.748;2024-03-23T05:40:39;98815.53;;;3.85;100.00
69257;BME280;56376;53.356;-1.748;2024-03-23T05:43:08;98807.94;;;3.78;100.00
69257;BME280;56376;53.356;-1.748;2024-03-23T05:45:34;98807.19;;;3.73;100.00
69257;BME280;56376;53.356;-1.748;2024-03-23T05:48:00;98800.31;;;3.73;100.00
69257;BME280;56376;53.356;-1.748;2024-03-23T05:50:25;98793.63;;;3.63;100.00
69257;BME280;56376;53.356;-1.748;2024-03-23T05:52:51;98797.13;;;3.60;100.00
69257;BME280;56376;53.356;-1.748;2024-03-23T05:55:18;98796.19;;;3.63;100.00
69257;BME280;56376;53.356;-1.748;2024-03-23T05:57:43;98806.56;;;3.60;100.00
69257;BME280;56376;53.356;-1.748;2024-03-23T06:00:09;98796.16;;;3.64;100.00
69257;BME280;56376;53.356;-1.748;2024-03-23T06:02:44;98793.56;;;3.66;100.00
69257;BME280;56376;53.356;-1.748;2024-03-23T06:05:28;98790.91;;;3.69;100.00
69257;BME280;56376;53.356;-1.748;2024-03-23T06:07:54;98786.63;;;3.68;100.00
69257;BME280;56376;53.356;-1.748;2024-03-23T06:10:19;98784.91;;;3.68;100.00
69257;BME280;56376;53.356;-1.748;2024-03-23T06:12:48;98782.31;;;3.67;100.00
69257;BME280;56376;53.356;-1.748;2024-03-23T06:15:15;98768.56;;;3.68;100.00
69257;BME280;56376;53.356;-1.748;2024-03-23T06:17:41;98771.88;;;3.73;100.00
69257;BME280;56376;53.356;-1.748;2024-03-23T06:20:07;98789.91;;;3.75;100.00
69257;BME280;56376;53.356;-1.748;2024-03-23T06:22:32;98780.44;;;3.75;100.00
69257;BME280;56376;53.356;-1.748;2024-03-23T06:25:00;98779.47;;;3.81;100.00
69257;BME280;56376;53.356;-1.748;2024-03-23T06:27:25;98771.81;;;3.76;100.00
69257;BME280;56376;53.356;-1.748;2024-03-23T06:29:51;98778.59;;;3.82;100.00
69257;BME280;56376;53.356;-1.748;2024-03-23T06:32:16;98779.41;;;3.84;100.00
69257;BME280;56376;53.356;-1.748;2024-03-23T06:34:42;98787.31;;;3.76;100.00
69257;BME280;56376;53.356;-1.748;2024-03-23T06:37:08;98781.25;;;3.79;100.00
69257;BME280;56376;53.356;-1.748;2024-03-23T06:39:35;98778.69;;;3.77;100.00
69257;BME280;56376;53.356;-1.748;2024-03-23T06:42:02;98759.66;;;3.81;100.00
69257;BME280;56376;53.356;-1.748;2024-03-23T06:44:28;98771.69;;;3.82;100.00
69257;BME280;56376;53.356;-1.748;2024-03-23T06:46:54;98772.56;;;3.81;100.00
69257;BME280;56376;53.356;-1.748;2024-03-23T06:49:20;98781.91;;;3.87;100.00
69257;BME280;56376;53.356;-1.748;2024-03-23T06:51:45;98775.22;;;3.78;100.00
69257;BME280;56376;53.356;-1.748;2024-03-23T06:54:13;98771.81;;;3.76;100.00
69257;BME280;56376;53.356;-1.748;2024-03-23T06:56:39;98774.25;;;3.84;100.00
69257;BME280;56376;53.356;-1.748;2024-03-23T06:59:04;98775.19;;;3.80;100.00
69257;BME280;56376;53.356;-1.748;2024-03-23T07:01:29;98772.59;;;3.80;100.00
69257;BME280;56376;53.356;-1.748;2024-03-23T07:03:56;98765.84;;;3.73;100.00
69257;BME280;56376;53.356;-1.748;2024-03-23T07:06:22;98783.72;;;3.83;100.00
69257;BME280;56376;53.356;-1.748;2024-03-23T07:08:47;98784.44;;;3.90;100.00
69257;BME280;56376;53.356;-1.748;2024-03-23T07:11:19;98773.44;;;3.80;100.00
69257;BME280;56376;53.356;-1.748;2024-03-23T07:13:45;98764.94;;;3.75;100.00
69257;BME280;56376;53.356;-1.748;2024-03-23T07:16:12;98775.25;;;3.75;100.00
69257;BME280;56376;53.356;-1.748;2024-03-23T07:18:38;98761.59;;;3.70;100.00
69257;BME280;56376;53.356;-1.748;2024-03-23T07:21:04;98759.84;;;3.72;100.00
69257;BME280;56376;53.356;-1.748;2024-03-23T07:23:34;98753.75;;;3.75;100.00
69257;BME280;56376;53.356;-1.748;2024-03-23T07:26:03;98741.66;;;3.77;100.00
69257;BME280;56376;53.356;-1.748;2024-03-23T07:28:33;98736.47;;;3.78;100.00
69257;BME280;56376;53.356;-1.748;2024-03-23T07:31:07;98752.59;;;3.88;100.00
69257;BME280;56376;53.356;-1.748;2024-03-23T07:36:18;98750.94;;;3.85;100.00
69257;BME280;56376;53.356;-1.748;2024-03-23T07:38:43;98755.25;;;3.85;100.00
69257;BME280;56376;53.356;-1.748;2024-03-23T07:41:15;98755.19;;;3.88;100.00
69257;BME280;56376;53.356;-1.748;2024-03-23T07:43:42;98746.53;;;3.90;100.00
69257;BME280;56376;53.356;-1.748;2024-03-23T07:46:08;98743.91;;;3.94;100.00
69257;BME280;56376;53.356;-1.748;2024-03-23T07:48:34;98737.72;;;4.01;100.00
69257;BME280;56376;53.356;-1.748;2024-03-23T07:51:01;98735.91;;;4.03;100.00
69257;BME280;56376;53.356;-1.748;2024-03-23T07:53:29;98728.13;;;4.06;100.00
69257;BME280;56376;53.356;-1.748;2024-03-23T07:55:59;98728.03;;;4.09;100.00
69257;BME280;56376;53.356;-1.748;2024-03-23T07:58:25;98710.72;;;4.12;100.00
69257;BME280;56376;53.356;-1.748;2024-03-23T08:00:52;98720.22;;;4.12;100.00
69257;BME280;56376;53.356;-1.748;2024-03-23T08:03:18;98710.81;;;4.08;100.00
69257;BME280;56376;53.356;-1.748;2024-03-23T08:05:44;98723.91;;;4.02;100.00
69257;BME280;56376;53.356;-1.748;2024-03-23T08:08:10;98696.31;;;4.02;100.00
69257;BME280;56376;53.356;-1.748;2024-03-23T08:10:36;98717.81;;;4.03;100.00
69257;BME280;56376;53.356;-1.748;2024-03-23T08:13:02;98727.25;;;4.05;100.00
69257;BME280;56376;53.356;-1.748;2024-03-23T08:15:32;98730.66;;;4.07;100.00
69257;BME280;56376;53.356;-1.748;2024-03-23T08:18:00;98736.78;;;4.03;100.00
69257;BME280;56376;53.356;-1.748;2024-03-23T08:20:26;98726.19;;;4.14;100.00
69257;BME280;56376;53.356;-1.748;2024-03-23T08:22:52;98718.25;;;4.22;100.00
69257;BME280;56376;53.356;-1.748;2024-03-23T08:28:20;98722.31;;;4.33;100.00
69257;BME280;56376;53.356;-1.748;2024-03-23T08:30:46;98726.50;;;4.38;100.00
69257;BME280;56376;53.356;-1.748;2024-03-23T08:33:12;98720.28;;;4.45;100.00
69257;BME280;56376;53.356;-1.748;2024-03-23T08:35:38;98709.75;;;4.54;100.00
69257;BME280;56376;53.356;-1.748;2024-03-23T08:38:04;98701.53;;;4.71;100.00
69257;BME280;56376;53.356;-1.748;2024-03-23T08:40:29;98694.47;;;4.77;100.00
69257;BME280;56376;53.356;-1.748;2024-03-23T08:42:55;98694.03;;;4.94;100.00
69257;BME280;56376;53.356;-1.748;2024-03-23T08:45:20;98685.03;;;5.08;100.00
69257;BME280;56376;53.356;-1.748;2024-03-23T08:47:46;98693.50;;;5.14;100.00
69257;BME280;56376;53.356;-1.748;2024-03-23T08:50:11;98694.25;;;5.18;100.00
69257;BME280;56376;53.356;-1.748;2024-03-23T08:52:37;98697.84;;;5.12;100.00
69257;BME280;56376;53.356;-1.748;2024-03-23T08:55:04;98691.97;;;5.07;100.00
69257;BME280;56376;53.356;-1.748;2024-03-23T08:57:29;98699.94;;;4.99;100.00
69257;BME280;56376;53.356;-1.748;2024-03-23T08:59:55;98707.84;;;4.93;100.00
69257;BME280;56376;53.356;-1.748;2024-03-23T09:02:20;98714.75;;;4.93;100.00
69257;BME280;56376;53.356;-1.748;2024-03-23T09:04:46;98705.31;;;4.92;100.00
69257;BME280;56376;53.356;-1.748;2024-03-23T09:07:11;98700.13;;;4.92;100.00
69257;BME280;56376;53.356;-1.748;2024-03-23T09:09:39;98704.94;;;5.06;100.00
69257;BME280;56376;53.356;-1.748;2024-03-23T09:12:05;98710.50;;;5.23;100.00
69257;BME280;56376;53.356;-1.748;2024-03-23T09:14:33;98686.72;;;5.40;100.00
69257;BME280;56376;53.356;-1.748;2024-03-23T09:16:58;98695.50;;;5.64;100.00
69257;BME280;56376;53.356;-1.748;2024-03-23T09:19:27;98689.72;;;5.84;100.00
69257;BME280;56376;53.356;-1.748;2024-03-23T09:21:53;98686.47;;;6.07;100.00
69257;BME280;56376;53.356;-1.748;2024-03-23T09:24:20;98683.69;;;6.13;100.00
69257;BME280;56376;53.356;-1.748;2024-03-23T09:26:46;98684.63;;;6.11;100.00
69257;BME280;56376;53.356;-1.748;2024-03-23T09:29:12;98686.41;;;6.09;100.00
69257;BME280;56376;53.356;-1.748;2024-03-23T09:31:37;98689.97;;;6.06;100.00
69257;BME280;56376;53.356;-1.748;2024-03-23T09:34:05;98680.56;;;6.02;100.00
69257;BME280;56376;53.356;-1.748;2024-03-23T09:36:31;98677.13;;;6.01;100.00
69257;BME280;56376;53.356;-1.748;2024-03-23T09:38:56;98677.03;;;6.04;100.00
69257;BME280;56376;53.356;-1.748;2024-03-23T09:41:22;98669.31;;;6.03;100.00
69257;BME280;56376;53.356;-1.748;2024-03-23T09:43:48;98671.09;;;6.01;100.00
69257;BME280;56376;53.356;-1.748;2024-03-23T09:46:14;98652.22;;;5.97;100.00
69257;BME280;56376;53.356;-1.748;2024-03-23T09:48:41;98665.63;;;6.10;100.00
69257;BME280;56376;53.356;-1.748;2024-03-23T09:51:09;98659.31;;;6.19;100.00
69257;BME280;56376;53.356;-1.748;2024-03-23T09:53:34;98665.84;;;6.31;100.00
69257;BME280;56376;53.356;-1.748;2024-03-23T09:56:00;98656.50;;;6.52;100.00
69257;BME280;56376;53.356;-1.748;2024-03-23T09:58:25;98659.31;;;6.70;100.00
69257;BME280;56376;53.356;-1.748;2024-03-23T10:00:51;98656.47;;;6.78;100.00
69257;BME280;56376;53.356;-1.748;2024-03-23T10:03:19;98640.00;;;6.78;100.00
69257;BME280;56376;53.356;-1.748;2024-03-23T10:05:44;98668.63;;;6.76;100.00
69257;BME280;56376;53.356;-1.748;2024-03-23T10:10:39;98652.41;;;6.69;100.00
69257;BME280;56376;53.356;-1.748;2024-03-23T10:13:04;98657.72;;;6.66;100.00
69257;BME280;56376;53.356;-1.748;2024-03-23T10:15:34;98655.06;;;6.93;100.00
69257;BME280;56376;53.356;-1.748;2024-03-23T10:18:19;98650.22;;;7.07;100.00
69257;BME280;56376;53.356;-1.748;2024-03-23T10:23:33;98648.53;;;7.06;100.00
69257;BME280;56376;53.356;-1.748;2024-03-23T10:28:50;98642.44;;;7.07;100.00
69257;BME280;56376;53.356;-1.748;2024-03-23T10:31:16;98654.94;;;7.21;100.00
69257;BME280;56376;53.356;-1.748;2024-03-23T10:33:49;98647.84;;;7.25;100.00
69257;BME280;56376;53.356;-1.748;2024-03-23T10:36:15;98643.47;;;7.27;100.00
69257;BME280;56376;53.356;-1.748;2024-03-23T10:38:42;98654.56;;;7.30;100.00
69257;BME280;56376;53.356;-1.748;2024-03-23T10:41:11;98655.47;;;7.29;100.00
69257;BME280;56376;53.356;-1.748;2024-03-23T10:43:37;98654.56;;;7.30;100.00
69257;BME280;56376;53.356;-1.748;2024-03-23T10:46:04;98653.28;;;7.19;100.00
69257;BME280;56376;53.356;-1.748;2024-03-23T10:48:29;98691.88;;;7.04;100.00
69257;BME280;56376;53.356;-1.748;2024-03-23T10:50:55;98676.00;;;6.88;100.00
69257;BME280;56376;53.356;-1.748;2024-03-23T10:53:26;98673.19;;;6.69;100.00
69257;BME280;56376;53.356;-1.748;2024-03-23T10:55:52;98666.41;;;6.40;100.00
69257;BME280;56376;53.356;-1.748;2024-03-23T10:58:23;98683.22;;;6.27;100.00
69257;BME280;56376;53.356;-1.748;2024-03-23T11:00:50;98667.66;;;6.27;100.00
69257;BME280;56376;53.356;-1.748;2024-03-23T11:03:36;98667.06;;;6.19;100.00
69257;BME280;56376;53.356;-1.748;2024-03-23T11:06:05;98661.06;;;6.18;100.00
69257;BME280;56376;53.356;-1.748;2024-03-23T11:13:39;98661.25;;;6.39;100.00
69257;BME280;56376;53.356;-1.748;2024-03-23T11:18:40;98654.81;;;6.24;100.00
69257;BME280;56376;53.356;-1.748;2024-03-23T11:21:07;98660.44;;;6.37;100.00
69257;BME280;56376;53.356;-1.748;2024-03-23T11:23:33;98646.34;;;6.45;100.00
69257;BME280;56376;53.356;-1.748;2024-03-23T11:25:58;98643.53;;;6.77;100.00
69257;BME280;56376;53.356;-1.748;2024-03-23T11:28:23;98634.13;;;6.98;100.00
69257;BME280;56376;53.356;-1.748;2024-03-23T11:30:49;98637.88;;;7.14;100.00
69257;BME280;56376;53.356;-1.748;2024-03-23T11:33:15;98639.22;;;7.24;100.00
69257;BME280;56376;53.356;-1.748;2024-03-23T11:35:41;98664.97;;;7.30;100.00
69257;BME280;56376;53.356;-1.748;2024-03-23T11:38:14;98657.81;;;7.13;100.00
69257;BME280;56376;53.356;-1.748;2024-03-23T11:40:41;98657.41;;;7.01;100.00
69257;BME280;56376;53.356;-1.748;2024-03-23T11:43:08;98650.56;;;6.98;100.00
69257;BME280;56376;53.356;-1.748;2024-03-23T11:45:36;98640.59;;;7.11;100.00
69257;BME280;56376;53.356;-1.748;2024-03-23T11:50:37;98629.22;;;7.37;100.00
69257;BME280;56376;53.356;-1.748;2024-03-23T11:53:23;98614.75;;;7.53;100.00
69257;BME280;56376;53.356;-1.748;2024-03-23T11:55:50;98620.50;;;7.62;100.00
69257;BME280;56376;53.356;-1.748;2024-03-23T11:58:17;98597.94;;;7.62;100.00
69257;BME280;56376;53.356;-1.748;2024-03-23T12:03:24;98610.78;;;7.89;100.00
69257;BME280;56376;53.356;-1.748;2024-03-23T12:05:59;98616.56;;;7.95;100.00
69257;BME280;56376;53.356;-1.748;2024-03-23T12:08:36;98621.72;;;7.97;100.00
69257;BME280;56376;53.356;-1.748;2024-03-23T12:11:17;98647.88;;;7.70;100.00
69257;BME280;56376;53.356;-1.748;2024-03-23T12:13:45;98647.56;;;7.32;100.00
69257;BME280;56376;53.356;-1.748;2024-03-23T12:16:17;98652.16;;;7.26;100.00
69257;BME280;56376;53.356;-1.748;2024-03-23T12:18:44;98628.19;;;7.18;100.00
69257;BME280;56376;53.356;-1.748;2024-03-23T12:21:10;98624.56;;;7.23;100.00
69257;BME280;56376;53.356;-1.748;2024-03-23T12:23:40;98629.47;;;7.31;100.00
69257;BME280;56376;53.356;-1.748;2024-03-23T12:26:07;98627.78;;;7.52;100.00
69257;BME280;56376;53.356;-1.748;2024-03-23T12:28:33;98628.03;;;7.68;100.00
69257;BME280;56376;53.356;-1.748;2024-03-23T12:30:58;98612.81;;;7.80;100.00
69257;BME280;56376;53.356;-1.748;2024-03-23T12:33:24;98619.72;;;7.82;100.00
69257;BME280;56376;53.356;-1.748;2024-03-23T12:35:50;98608.56;;;8.00;100.00
69257;BME280;56376;53.356;-1.748;2024-03-23T12:38:16;98588.63;;;8.21;100.00
69257;BME280;56376;53.356;-1.748;2024-03-23T12:40:45;98586.63;;;8.28;100.00
69257;BME280;56376;53.356;-1.748;2024-03-23T12:43:12;98582.91;;;8.33;100.00
69257;BME280;56376;53.356;-1.748;2024-03-23T12:45:38;98585.38;;;8.36;100.00
69257;BME280;56376;53.356;-1.748;2024-03-23T12:48:03;98588.75;;;8.40;100.00
69257;BME280;56376;53.356;-1.748;2024-03-23T12:50:29;98575.75;;;8.38;100.00
69257;BME280;56376;53.356;-1.748;2024-03-23T12:52:54;98587.84;;;8.41;100.00
69257;BME280;56376;53.356;-1.748;2024-03-23T12:55:20;98586.59;;;8.50;100.00
69257;BME280;56376;53.356;-1.748;2024-03-23T12:57:45;98577.75;;;8.54;100.00
69257;BME280;56376;53.356;-1.748;2024-03-23T13:00:11;98577.50;;;8.60;100.00
69257;BME280;56376;53.356;-1.748;2024-03-23T13:02:40;98571.31;;;8.62;100.00
69257;BME280;56376;53.356;-1.748;2024-03-23T13:05:06;98573.06;;;8.62;100.00
69257;BME280;56376;53.356;-1.748;2024-03-23T13:07:33;98580.00;;;8.61;100.00
69257;BME280;56376;53.356;-1.748;2024-03-23T13:09:58;98591.47;;;8.57;100.00
69257;BME280;56376;53.356;-1.748;2024-03-23T13:12:24;98590.00;;;8.52;100.00
69257;BME280;56376;53.356;-1.748;2024-03-23T13:14:51;98602.03;;;8.54;100.00
69257;BME280;56376;53.356;-1.748;2024-03-23T13:17:17;98582.94;;;8.54;100.00
69257;BME280;56376;53.356;-1.748;2024-03-23T13:19:42;98583.91;;;8.51;100.00
69257;BME280;56376;53.356;-1.748;2024-03-23T13:22:08;98584.38;;;8.40;100.00
69257;BME280;56376;53.356;-1.748;2024-03-23T13:24:37;98580.41;;;8.32;100.00
69257;BME280;56376;53.356;-1.748;2024-03-23T13:27:02;98584.38;;;8.40;100.00
69257;BME280;56376;53.356;-1.748;2024-03-23T13:29:29;98574.44;;;8.50;100.00
69257;BME280;56376;53.356;-1.748;2024-03-23T13:31:55;98574.69;;;8.64;100.00
69257;BME280;56376;53.356;-1.748;2024-03-23T13:34:21;98575.25;;;8.71;100.00
69257;BME280;56376;53.356;-1.748;2024-03-23T13:36:47;98581.94;;;8.77;100.00
69257;BME280;56376;53.356;-1.748;2024-03-23T13:39:14;98570.34;;;8.84;100.00
69257;BME280;56376;53.356;-1.748;2024-03-23T13:41:44;98580.66;;;8.87;100.00
69257;BME280;56376;53.356;-1.748;2024-03-23T13:44:12;98559.28;;;8.79;100.00
69257;BME280;56376;53.356;-1.748;2024-03-23T13:46:40;98547.06;;;8.81;100.00
69257;BME280;56376;53.356;-1.748;2024-03-23T13:49:08;98546.47;;;8.74;100.00
69257;BME280;56376;53.356;-1.748;2024-03-23T13:51:43;98539.88;;;8.67;100.00
69257;BME280;56376;53.356;-1.748;2024-03-23T13:54:30;98553.03;;;8.83;100.00
69257;BME280;56376;53.356;-1.748;2024-03-23T13:56:56;98555.69;;;8.81;100.00
69257;BME280;56376;53.356;-1.748;2024-03-23T13:59:22;98544.59;;;8.78;100.00
69257;BME280;56376;53.356;-1.748;2024-03-23T14:01:50;98555.25;;;8.72;100.00
69257;BME280;56376;53.356;-1.748;2024-03-23T14:04:16;98562.31;;;8.70;100.00
69257;BME280;56376;53.356;-1.748;2024-03-23T14:06:43;98555.41;;;8.69;100.00
69257;BME280;56376;53.356;-1.748;2024-03-23T14:09:11;98542.09;;;8.56;100.00